Time;durP1;ratioP1;P1;durP2;ratioP2;P2;SDS_P1;SDS_P2;PMS_P1;PMS_P2;Temp;Humidity;BMP_temperature;BMP_pressure;BME280_temperature;BME280_humidity;BME280_pressure;Samples;Min_cycle;Max_cycle;Signal;HPM_P1;HPM_P2
2022/04/25 00:01:54;;;;;;;;;26.75;20.75;;;;;13.09;54.92;99923.06;4996812;28;45291;-67
2022/04/25 00:04:19;;;;;;;;;21.50;21.50;;;;;13.07;55.00;99922.31;4997118;28;45478;-65
2022/04/25 00:06:48;;;;;;;;;24.75;22.50;;;;;13.03;54.65;99924.28;4997111;28;45420;-66
2022/04/25 00:09:13;;;;;;;;;23.75;20.75;;;;;13.05;54.93;99926.84;4997406;28;45673;-66
2022/04/25 00:11:38;;;;;;;;;22.00;21.00;;;;;13.03;55.05;99919.00;4995655;28;45516;-67
2022/04/25 00:14:06;;;;;;;;;17.50;17.50;;;;;13.02;54.59;99927.03;4994198;28;45401;-65
2022/04/25 00:16:32;;;;;;;;;21.50;18.50;;;;;12.97;55.04;99920.25;4995519;28;45406;-66
2022/04/25 00:18:57;;;;;;;;;22.50;20.50;;;;;12.92;55.29;99921.44;4996839;28;45397;-68
2022/04/25 00:21:23;;;;;;;;;27.75;23.00;;;;;12.90;55.72;99928.59;4996725;28;46204;-68
2022/04/25 00:23:48;;;;;;;;;23.50;20.50;;;;;12.87;55.31;99919.09;4996778;28;45355;-65
2022/04/25 00:26:14;;;;;;;;;23.75;22.25;;;;;12.79;55.28;99914.28;4997416;28;45411;-64
2022/04/25 00:28:39;;;;;;;;;20.25;19.25;;;;;12.76;55.02;99917.09;4997271;28;45436;-64
2022/04/25 00:31:04;;;;;;;;;18.75;18.75;;;;;12.75;54.72;99917.19;4996604;28;45837;-64
2022/04/25 00:33:30;;;;;;;;;19.25;17.00;;;;;12.70;55.10;99915.66;4995074;28;45393;-64
2022/04/25 00:35:55;;;;;;;;;22.00;16.75;;;;;12.69;55.13;99921.88;4996652;28;45356;-66
2022/04/25 00:38:21;;;;;;;;;21.50;20.50;;;;;12.65;55.26;99920.34;5006606;28;45494;-67
2022/04/25 00:40:46;;;;;;;;;21.75;19.75;;;;;12.63;55.33;99921.41;5016112;28;45448;-65
2022/04/25 00:43:12;;;;;;;;;19.25;19.25;;;;;12.63;55.22;99924.88;5016518;28;45334;-66
2022/04/25 00:45:37;;;;;;;;;25.25;19.50;;;;;12.58;55.29;99924.31;5015006;28;45351;-67
2022/04/25 00:48:03;;;;;;;;;31.50;24.75;;;;;12.60;55.40;99922.44;5015098;28;45579;-67
2022/04/25 00:50:29;;;;;;;;;28.50;25.75;;;;;12.62;55.30;99915.28;5015916;28;46358;-67
2022/04/25 00:52:55;;;;;;;;;33.00;28.25;;;;;12.59;55.61;99914.63;5016036;28;45245;-69
2022/04/25 00:55:20;;;;;;;;;26.50;22.75;;;;;12.55;55.66;99913.94;5015492;28;45343;-68
2022/04/25 00:57:46;;;;;;;;;25.00;21.50;;;;;12.55;55.50;99916.56;5016763;28;45571;-65
2022/04/25 01:00:13;;;;;;;;;23.25;21.00;;;;;12.49;55.48;99920.44;5016326;28;45469;-68
2022/04/25 01:02:40;;;;;;;;;30.50;25.50;;;;;12.46;55.89;99917.13;5016131;28;45510;-68
2022/04/25 01:05:07;;;;;;;;;26.25;26.25;;;;;12.40;56.13;99920.97;5016087;28;45305;-68
2022/04/25 01:07:37;;;;;;;;;22.50;21.25;;;;;12.34;55.86;99923.97;5016019;28;45191;-65
2022/04/25 01:10:08;;;;;;;;;22.00;22.00;;;;;12.23;56.11;99920.19;5015423;28;46438;-68
2022/04/25 01:12:33;;;;;;;;;28.75;26.25;;;;;12.23;56.71;99928.09;4997662;28;45490;-67
2022/04/25 01:15:10;;;;;;;;;26.00;22.50;;;;;12.18;56.32;99926.63;5015392;28;45191;-67
2022/04/25 01:17:36;;;;;;;;;47.00;34.00;;;;;12.17;56.96;99928.41;5014152;28;45457;-68
2022/04/25 01:20:02;;;;;;;;;38.50;32.50;;;;;12.13;56.82;99929.53;5015487;28;46490;-68
2022/04/25 01:22:32;;;;;;;;;36.75;33.00;;;;;12.10;56.43;99924.44;5015437;28;45515;-66
2022/04/25 01:27:41;;;;;;;;;32.50;28.50;;;;;12.11;57.30;99928.75;5015696;28;45366;-68
2022/04/25 01:30:09;;;;;;;;;29.50;26.50;;;;;12.08;57.31;99926.31;5015428;28;46740;-64
2022/04/25 01:32:35;;;;;;;;;23.75;21.25;;;;;12.07;57.56;99928.09;5015255;28;45498;-64
2022/04/25 01:35:00;;;;;;;;;29.50;23.75;;;;;12.04;57.13;99917.72;5015560;28;45346;-65
2022/04/25 01:37:26;;;;;;;;;21.50;20.75;;;;;12.05;57.67;99931.75;5015652;28;45475;-63
2022/04/25 01:39:54;;;;;;;;;22.75;18.75;;;;;12.04;57.44;99917.72;5015116;28;45400;-63
2022/04/25 01:42:20;;;;;;;;;26.50;21.00;;;;;12.08;57.60;99929.81;5015258;28;45299;-66
2022/04/25 01:44:46;;;;;;;;;21.50;19.50;;;;;12.08;57.57;99928.94;5015718;28;45375;-65
2022/04/25 01:47:11;;;;;;;;;23.75;21.75;;;;;12.11;57.29;99929.63;5015366;28;45339;-65
2022/04/25 01:49:37;;;;;;;;;19.75;17.50;;;;;12.08;57.52;99919.25;5015075;28;46323;-66
2022/04/25 01:52:11;;;;;;;;;23.00;19.25;;;;;12.05;57.29;99921.22;5015005;28;45247;-64
2022/04/25 01:54:36;;;;;;;;;24.50;20.25;;;;;12.05;57.87;99929.97;5015277;28;45388;-64
2022/04/25 01:57:02;;;;;;;;;23.00;20.25;;;;;11.99;57.54;99931.13;5015419;28;45347;-65
2022/04/25 01:59:29;;;;;;;;;20.75;17.50;;;;;11.98;57.99;99937.34;4996980;28;46206;-64
2022/04/25 02:01:54;;;;;;;;;24.00;21.25;;;;;11.91;57.99;99935.16;5014923;28;45317;-67
2022/04/25 02:04:21;;;;;;;;;24.75;20.50;;;;;11.77;58.54;99926.25;5015118;28;45518;-65
2022/04/25 02:06:47;;;;;;;;;17.75;16.25;;;;;11.77;58.45;99939.41;5015337;28;45422;-64
2022/04/25 02:09:12;;;;;;;;;23.00;19.50;;;;;11.77;58.80;99938.53;5014635;28;45498;-65
2022/04/25 02:11:39;;;;;;;;;20.50;19.75;;;;;11.76;58.66;99939.47;5014582;28;45364;-66
2022/04/25 02:14:04;;;;;;;;;20.50;18.00;;;;;11.71;58.56;99952.06;5014991;28;45477;-69
2022/04/25 02:16:30;;;;;;;;;19.75;18.25;;;;;11.68;59.27;99961.00;5014863;28;45418;-66
2022/04/25 02:18:55;;;;;;;;;21.75;19.00;;;;;11.63;59.56;99960.38;5013215;28;46666;-65
2022/04/25 02:21:21;;;;;;;;;23.75;22.25;;;;;11.53;59.64;99960.03;5014835;28;45448;-65
2022/04/25 02:23:47;;;;;;;;;19.25;19.25;;;;;11.50;59.63;99954.94;5015195;28;45298;-64
2022/04/25 02:26:12;;;;;;;;;23.75;22.00;;;;;11.45;59.94;99952.53;5015060;28;45377;-66
2022/04/25 02:28:39;;;;;;;;;20.50;20.25;;;;;11.39;59.94;99952.88;5016796;28;45237;-65
2022/04/25 02:31:06;;;;;;;;;24.75;24.50;;;;;11.38;59.81;99956.44;5000305;28;45812;-64
2022/04/25 02:33:32;;;;;;;;;25.25;22.50;;;;;11.33;60.44;99947.94;5018293;28;45402;-63
2022/04/25 02:36:07;;;;;;;;;21.50;18.25;;;;;11.33;60.73;99955.81;5018321;28;45266;-67
2022/04/25 02:38:34;;;;;;;;;22.00;21.75;;;;;11.32;60.95;99951.50;5018160;28;45345;-67
2022/04/25 02:41:05;;;;;;;;;24.75;20.25;;;;;11.31;60.35;99952.44;5018148;28;45423;-69
2022/04/25 02:43:33;;;;;;;;;19.75;18.00;;;;;11.31;60.73;99953.28;5018411;28;45313;-67
2022/04/25 02:45:58;;;;;;;;;21.00;18.75;;;;;11.30;61.31;99961.25;5018243;28;45581;-67
2022/04/25 02:48:24;;;;;;;;;23.00;22.00;;;;;11.27;61.42;99950.91;5017735;28;45293;-69
2022/04/25 02:50:49;;;;;;;;;25.25;20.00;;;;;11.30;61.44;99958.63;5018141;28;45427;-63
2022/04/25 02:53:15;;;;;;;;;22.75;21.50;;;;;11.28;62.12;99961.34;5018063;28;45772;-64
2022/04/25 02:55:41;;;;;;;;;26.75;25.75;;;;;11.24;61.39;99955.38;5018246;28;45689;-65
2022/04/25 02:58:08;;;;;;;;;24.00;21.00;;;;;11.23;62.53;99958.13;5017882;28;47011;-63
2022/04/25 03:00:34;;;;;;;;;26.25;23.50;;;;;11.20;62.35;99956.50;5017867;28;45191;-65
2022/04/25 03:02:59;;;;;;;;;25.75;23.75;;;;;11.19;62.63;99957.41;5017870;28;45324;-64
2022/04/25 03:05:25;;;;;;;;;25.00;25.00;;;;;11.20;62.14;99958.28;5018049;28;45260;-65
2022/04/25 03:07:50;;;;;;;;;23.00;22.50;;;;;11.16;63.02;99957.56;5018021;28;45512;-65
2022/04/25 03:10:15;;;;;;;;;30.75;26.25;;;;;11.15;63.17;99961.16;4999663;28;45353;-64
2022/04/25 03:12:41;;;;;;;;;20.25;18.75;;;;;11.16;63.39;99965.47;5017690;28;45397;-64
2022/04/25 03:15:07;;;;;;;;;26.75;22.75;;;;;11.13;62.72;99965.63;5017642;28;45226;-63
2022/04/25 03:17:32;;;;;;;;;26.25;24.75;;;;;11.07;63.33;99964.16;5017258;28;47371;-66
2022/04/25 03:19:57;;;;;;;;;31.75;25.25;;;;;11.02;63.75;99962.72;5017360;28;45467;-68
2022/04/25 03:22:24;;;;;;;;;26.25;24.00;;;;;11.02;63.76;99958.28;5017783;28;45408;-66
2022/04/25 03:24:49;;;;;;;;;29.75;25.25;;;;;11.02;63.80;99962.72;5018000;28;45338;-67
2022/04/25 03:27:14;;;;;;;;;26.50;24.00;;;;;11.05;63.57;99959.94;5017141;28;45371;-67
2022/04/25 03:29:40;;;;;;;;;29.50;24.75;;;;;11.07;63.49;99960.69;5017337;28;45404;-63
2022/04/25 03:32:06;;;;;;;;;30.00;29.00;;;;;11.08;64.26;99962.41;5017289;28;45412;-65
2022/04/25 03:34:31;;;;;;;;;31.00;29.75;;;;;11.04;63.92;99958.22;5017563;28;45384;-65
2022/04/25 03:36:57;;;;;;;;;26.75;23.50;;;;;11.02;63.75;99962.72;5017174;28;45953;-66
2022/04/25 03:39:22;;;;;;;;;28.50;26.75;;;;;10.91;64.10;99953.59;5017030;28;45383;-64
2022/04/25 03:41:48;;;;;;;;;27.25;23.50;;;;;10.89;64.35;99962.50;5015678;28;45241;-66
2022/04/25 03:44:13;;;;;;;;;20.25;18.50;;;;;10.92;64.93;99971.09;5017325;28;45572;-65
2022/04/25 03:46:39;;;;;;;;;29.75;27.00;;;;;10.89;64.76;99968.63;5016885;28;45974;-67
2022/04/25 03:49:04;;;;;;;;;26.75;26.50;;;;;10.84;64.97;99975.03;5015603;28;45402;-66
2022/04/25 03:51:29;;;;;;;;;25.50;24.50;;;;;10.82;65.29;99975.13;5017103;28;45310;-67
2022/04/25 03:53:55;;;;;;;;;30.50;27.00;;;;;10.80;65.04;99972.56;5017274;28;45387;-66
2022/04/25 03:59:05;;;;;;;;;34.75;25.00;;;;;10.72;65.46;99972.09;5017043;28;45397;-68
2022/04/25 04:01:31;;;;;;;;;25.50;22.50;;;;;10.74;65.80;99982.56;4999136;28;45323;-68
2022/04/25 04:04:02;;;;;;;;;31.00;25.25;;;;;10.72;66.01;99984.41;5017083;28;45526;-68
2022/04/25 04:06:28;;;;;;;;;29.25;28.75;;;;;10.62;65.87;99977.00;5016802;28;45423;-67
2022/04/25 04:08:53;;;;;;;;;31.75;25.00;;;;;10.62;66.03;99989.28;5017116;28;45412;-68
2022/04/25 04:11:18;;;;;;;;;33.50;29.75;;;;;10.61;65.92;99988.44;5016803;28;45250;-68
2022/04/25 04:13:45;;;;;;;;;31.00;26.75;;;;;10.62;66.03;99987.50;5015494;28;45308;-70
2022/04/25 04:16:10;;;;;;;;;34.75;32.50;;;;;10.61;66.66;99987.56;5016400;28;46176;-67
2022/04/25 04:18:35;;;;;;;;;36.00;32.50;;;;;10.62;66.70;99999.78;5016561;28;45508;-70
2022/04/25 04:21:01;;;;;;;;;32.75;30.00;;;;;10.57;66.53;99997.38;5016671;28;45249;-68
2022/04/25 04:23:26;;;;;;;;;35.50;30.00;;;;;10.55;67.30;100001.88;5016886;28;45495;-68
2022/04/25 04:25:51;;;;;;;;;31.50;28.50;;;;;10.48;67.30;100000.47;5016859;28;45956;-69
2022/04/25 04:28:17;;;;;;;;;36.50;31.00;;;;;10.43;67.50;100002.47;5016587;28;45357;-67
2022/04/25 04:30:44;;;;;;;;;39.50;34.75;;;;;10.37;67.85;100004.44;5016340;28;45322;-67
2022/04/25 04:33:10;;;;;;;;;38.25;34.00;;;;;10.36;67.98;100013.25;5016489;28;45499;-67
2022/04/25 04:38:19;;;;;;;;;40.00;32.50;;;;;10.33;68.45;100010.78;5016229;28;45439;-68
2022/04/25 04:40:44;;;;;;;;;41.25;33.75;;;;;10.33;68.19;100023.91;5016345;28;45290;-69
2022/04/25 04:43:09;;;;;;;;;37.50;34.50;;;;;10.29;69.11;100011.00;4998826;28;45390;-66
2022/04/25 04:45:35;;;;;;;;;42.75;33.25;;;;;10.19;68.76;100006.19;5015956;28;46307;-64
2022/04/25 04:48:00;;;;;;;;;37.50;33.50;;;;;10.31;68.34;100028.41;5016039;28;45398;-67
2022/04/25 04:50:27;;;;;;;;;35.50;32.00;;;;;10.33;68.51;100029.16;4997587;28;45470;-66
2022/04/25 04:52:58;;;;;;;;;40.00;33.00;;;;;10.32;68.55;100032.72;5016440;28;45515;-68
2022/04/25 04:55:24;;;;;;;;;43.75;35.25;;;;;10.35;68.56;100037.84;5016091;28;46264;-67
2022/04/25 04:57:51;;;;;;;;;40.75;34.25;;;;;10.32;68.58;100039.78;5015834;28;45406;-68
2022/04/25 05:00:16;;;;;;;;;43.25;34.25;;;;;10.31;68.43;100051.22;5015988;28;45307;-67
2022/04/25 05:02:43;;;;;;;;;40.50;34.00;;;;;10.27;68.70;100049.66;5016207;28;45575;-65
2022/04/25 05:05:09;;;;;;;;;39.00;32.25;;;;;10.28;69.24;100054.81;4997856;28;46219;-66
2022/04/25 05:07:35;;;;;;;;;49.25;36.50;;;;;10.30;69.40;100063.50;5015622;28;45392;-67
2022/04/25 05:10:03;;;;;;;;;47.50;36.50;;;;;10.29;69.07;100050.44;5015767;28;45186;-67
2022/04/25 05:12:29;;;;;;;;;37.50;33.25;;;;;10.30;69.57;100063.50;5016152;28;45614;-64
2022/04/25 05:14:54;;;;;;;;;42.75;36.50;;;;;10.27;69.84;100061.00;5015915;28;45717;-66
2022/04/25 05:17:19;;;;;;;;;43.25;35.25;;;;;10.21;69.29;100050.78;5015651;28;45505;-68
2022/04/25 05:19:45;;;;;;;;;47.25;36.75;;;;;10.27;69.69;100065.44;5015656;28;45325;-67
2022/04/25 05:22:10;;;;;;;;;42.75;36.00;;;;;10.25;69.66;100067.28;5015774;28;45366;-68
2022/04/25 05:24:35;;;;;;;;;45.25;36.25;;;;;10.18;69.82;100074.59;4997306;28;47586;-68
2022/04/25 05:27:01;;;;;;;;;48.25;39.25;;;;;10.18;69.51;100079.84;5015409;28;46268;-68
2022/04/25 05:29:26;;;;;;;;;46.50;37.25;;;;;10.16;70.17;100071.19;5015813;28;45324;-69
2022/04/25 05:31:52;;;;;;;;;48.75;39.00;;;;;10.17;69.54;100076.38;4997373;28;45722;-65
2022/04/25 05:34:18;;;;;;;;;46.50;38.50;;;;;10.10;70.18;100077.59;5013700;28;46086;-66
2022/04/25 05:36:44;;;;;;;;;41.00;38.00;;;;;10.14;69.98;100083.53;4997356;28;45342;-64
2022/04/25 05:39:09;;;;;;;;;47.00;38.00;;;;;10.08;70.13;100088.16;5015369;28;45318;-64
2022/04/25 05:41:37;;;;;;;;;51.00;41.25;;;;;10.07;70.73;100082.97;4997744;28;45322;-66
2022/04/25 05:44:04;;;;;;;;;48.25;39.00;;;;;10.06;71.06;100089.13;5014987;28;45616;-65
2022/04/25 05:46:30;;;;;;;;;49.25;38.75;;;;;10.00;70.22;100082.41;4997356;28;45688;-67
2022/04/25 05:54:24;;;;;;;;;55.00;44.25;;;;;10.00;70.07;100100.78;5014741;28;45850;-67
2022/04/25 05:56:49;;;;;;;;;50.75;41.75;;;;;10.00;70.13;100103.44;5014743;28;45408;-68
2022/04/25 05:59:15;;;;;;;;;51.50;42.75;;;;;10.04;70.03;100101.50;5013365;28;45871;-67
2022/04/25 06:01:40;;;;;;;;;52.50;41.00;;;;;10.16;70.04;100110.59;5014766;28;45614;-67
2022/04/25 06:04:05;;;;;;;;;54.75;43.25;;;;;10.09;70.10;100108.25;5013206;28;47213;-67
2022/04/25 06:06:31;;;;;;;;;52.75;42.00;;;;;10.17;69.99;100114.94;5014801;28;45341;-67
2022/04/25 06:08:57;;;;;;;;;56.75;44.75;;;;;10.22;69.55;100126.97;5015229;28;45295;-65
2022/04/25 06:11:22;;;;;;;;;54.00;43.75;;;;;10.29;69.21;100118.78;5015051;28;45484;-65
2022/04/25 06:13:50;;;;;;;;;54.50;44.50;;;;;10.33;69.74;100131.69;4982424;28;46127;-70
2022/04/25 06:16:16;;;;;;;;;57.25;43.00;;;;;10.48;69.28;100127.53;4991822;28;45406;-67
2022/04/25 06:18:41;;;;;;;;;50.25;40.75;;;;;10.51;68.23;100129.16;4990832;28;45383;-66
2022/04/25 06:21:06;;;;;;;;;52.00;44.00;;;;;10.53;68.17;100129.94;4965860;28;45673;-66
2022/04/25 06:23:32;;;;;;;;;48.00;38.25;;;;;10.63;68.41;100131.25;4991669;28;47798;-63
2022/04/25 06:25:58;;;;;;;;;47.50;39.25;;;;;10.66;68.01;100130.22;4992508;28;45578;-66
2022/04/25 06:28:24;;;;;;;;;53.25;44.00;;;;;10.69;67.88;100142.41;4980223;28;45453;-67
2022/04/25 06:30:51;;;;;;;;;44.75;37.00;;;;;10.66;67.63;100144.25;4985162;28;45464;-67
2022/04/25 06:33:17;;;;;;;;;47.75;41.50;;;;;10.63;67.83;100133.00;4972292;28;46103;-65
2022/04/25 06:35:43;;;;;;;;;54.25;46.00;;;;;10.66;67.70;100138.97;4977824;28;45515;-65
2022/04/25 06:38:08;;;;;;;;;50.50;41.75;;;;;10.66;67.64;100132.84;4993672;28;45378;-65
2022/04/25 06:40:34;;;;;;;;;58.50;46.25;;;;;10.77;67.41;100137.63;4989177;28;45621;-66
2022/04/25 06:42:59;;;;;;;;;53.50;44.50;;;;;10.91;66.95;100137.78;4991394;28;45472;-64
2022/04/25 06:45:25;;;;;;;;;56.50;43.00;;;;;11.03;66.25;100132.84;4983420;28;45454;-64
2022/04/25 06:47:50;;;;;;;;;56.00;45.50;;;;;11.10;66.27;100129.81;4985062;28;45435;-64
2022/04/25 06:50:16;;;;;;;;;54.75;42.25;;;;;11.24;65.99;100133.59;4997915;28;45445;-64
2022/04/25 06:52:42;;;;;;;;;54.50;44.25;;;;;11.35;65.56;100133.88;4992372;28;46182;-64
2022/04/25 06:55:08;;;;;;;;;51.00;39.25;;;;;11.43;64.91;100136.13;4992687;28;45441;-64
2022/04/25 06:57:34;;;;;;;;;51.00;41.75;;;;;11.43;65.27;100144.00;4991960;28;45567;-62
2022/04/25 07:00:05;;;;;;;;;54.00;42.75;;;;;11.40;65.15;100145.03;4988364;28;45646;-65
2022/04/25 07:02:30;;;;;;;;;47.75;38.75;;;;;11.43;65.20;100146.66;4981940;28;46293;-61
2022/04/25 07:04:56;;;;;;;;;53.50;43.50;;;;;11.46;64.73;100151.75;4993571;28;45552;-66
2022/04/25 07:07:21;;;;;;;;;52.00;41.75;;;;;11.54;64.32;100154.84;4981246;28;45428;-65
2022/04/25 07:09:47;;;;;;;;;59.50;43.25;;;;;11.72;64.31;100146.97;4973389;28;45873;-68
2022/04/25 07:12:12;;;;;;;;;51.75;39.50;;;;;11.91;63.55;100151.25;4974677;28;46568;-65
2022/04/25 07:14:38;;;;;;;;;48.25;40.50;;;;;11.88;62.64;100154.06;4976955;28;45409;-65
2022/04/25 07:17:03;;;;;;;;;50.75;39.75;;;;;11.77;63.87;100151.97;4976936;28;45540;-63
2022/04/25 07:19:29;;;;;;;;;46.75;39.00;;;;;11.81;63.43;100158.78;4989914;28;45417;-64
2022/04/25 07:30:07;;;;;;;;;53.00;42.00;;;;;12.08;62.54;100160.91;4996839;28;45353;-64
2022/04/25 07:32:37;;;;;;;;;53.00;43.00;;;;;12.27;61.99;100169.56;4996904;28;46712;-65
2022/04/25 07:35:04;;;;;;;;;52.50;43.50;;;;;12.34;61.57;100174.53;4997453;28;45191;-62
2022/04/25 07:37:33;;;;;;;;;50.50;38.75;;;;;12.26;61.82;100169.66;4995783;28;45295;-61
2022/04/25 07:39:58;;;;;;;;;51.00;40.75;;;;;12.26;61.79;100181.06;4997021;28;45326;-64
2022/04/25 07:42:24;;;;;;;;;55.50;42.75;;;;;12.24;61.12;100184.69;4996379;28;45986;-62
2022/04/25 07:44:49;;;;;;;;;51.75;41.75;;;;;12.21;61.20;100172.53;4995622;28;45453;-64
2022/04/25 07:47:14;;;;;;;;;52.50;42.75;;;;;12.27;61.21;100169.56;4996720;28;45404;-64
2022/04/25 07:49:40;;;;;;;;;52.00;41.25;;;;;12.46;61.35;100179.13;4996495;28;45583;-65
2022/04/25 07:52:06;;;;;;;;;50.50;42.00;;;;;12.64;60.85;100181.69;4996783;28;46626;-64
2022/04/25 07:54:31;;;;;;;;;50.25;42.25;;;;;12.80;60.07;100177.25;4996600;28;45449;-65
2022/04/25 07:56:57;;;;;;;;;49.25;41.00;;;;;12.94;59.73;100186.19;4996222;28;45246;-65
2022/04/25 07:59:22;;;;;;;;;51.50;43.75;;;;;12.95;59.64;100188.75;4996939;28;45386;-64
2022/04/25 08:01:48;;;;;;;;;50.75;41.25;;;;;12.89;59.33;100186.47;4995256;28;47161;-65
2022/04/25 08:04:13;;;;;;;;;50.50;42.25;;;;;12.93;59.27;100189.75;4996547;28;45282;-67
2022/04/25 08:06:39;;;;;;;;;55.75;42.50;;;;;13.12;59.37;100202.78;4996591;28;45267;-64
2022/04/25 08:09:05;;;;;;;;;48.00;40.50;;;;;13.34;59.16;100205.03;4995661;28;45398;-66
2022/04/25 08:11:30;;;;;;;;;47.50;39.75;;;;;13.47;58.09;100202.56;4995943;28;45334;-63
2022/04/25 08:19:23;;;;;;;;;51.00;42.25;;;;;13.48;57.68;100206.91;4996576;28;45355;-64
2022/04/25 08:21:49;;;;;;;;;48.50;39.50;;;;;13.51;57.42;100216.47;4996218;28;46272;-62
2022/04/25 08:24:15;;;;;;;;;47.75;39.50;;;;;13.53;57.61;100220.69;4996328;28;45371;-64
2022/04/25 08:26:40;;;;;;;;;46.25;37.50;;;;;13.67;57.55;100222.53;4995190;28;45166;-64
2022/04/25 08:29:06;;;;;;;;;43.00;36.75;;;;;13.84;56.78;100220.69;4996988;28;45232;-67
2022/04/25 08:31:36;;;;;;;;;47.75;39.25;;;;;13.79;56.71;100228.91;4995847;28;46334;-64
2022/04/25 08:34:03;;;;;;;;;47.75;39.50;;;;;13.76;56.63;100228.22;4996068;28;45332;-65
2022/04/25 08:36:29;;;;;;;;;49.00;40.25;;;;;13.87;57.09;100231.06;4996464;28;45276;-63
2022/04/25 08:38:54;;;;;;;;;46.75;38.50;;;;;14.11;56.07;100238.47;4996743;28;45378;-65
2022/04/25 08:41:27;;;;;;;;;51.00;40.75;;;;;14.17;55.95;100241.59;4996091;28;46495;-63
2022/04/25 08:43:55;;;;;;;;;51.00;41.00;;;;;14.17;55.06;100241.59;4996333;28;45302;-65
2022/04/25 08:46:22;;;;;;;;;47.00;40.25;;;;;14.10;55.44;100235.00;4996315;28;45290;-64
2022/04/25 08:48:52;;;;;;;;;37.75;33.00;;;;;14.17;55.15;100243.38;4996345;28;45614;-66
2022/04/25 08:51:18;;;;;;;;;48.50;40.25;;;;;14.20;55.25;100250.31;4995678;28;46221;-66
2022/04/25 08:53:44;;;;;;;;;49.50;42.25;;;;;14.32;55.13;100253.06;4978071;28;45438;-66
2022/04/25 08:56:12;;;;;;;;;50.75;42.25;;;;;14.33;54.56;100243.31;4996139;28;45469;-66
2022/04/25 08:58:41;;;;;;;;;45.75;37.75;;;;;14.46;54.43;100259.28;4996413;28;45547;-67
2022/04/25 09:01:09;;;;;;;;;50.75;40.25;;;;;14.53;54.57;100249.16;4996121;28;45398;-64
2022/04/25 09:03:35;;;;;;;;;47.75;38.50;;;;;14.70;53.86;100258.75;4994363;28;45279;-64
2022/04/25 09:06:00;;;;;;;;;48.50;40.00;;;;;14.73;53.79;100255.91;4995874;28;45310;-66
2022/04/25 09:08:25;;;;;;;;;44.75;38.25;;;;;14.79;53.56;100254.66;4995923;28;45583;-65
2022/04/25 09:12:09;;;;;;;;;48.75;40.00;;;;;14.82;53.75;100250.03;4995622;28;45403;-63
2022/04/25 09:13:36;;;;;;;;;43.75;37.75;;;;;14.72;53.74;100257.69;4995670;28;45416;-63
2022/04/25 09:16:02;;;;;;;;;46.50;38.50;;;;;14.84;53.77;100252.56;4995786;28;45385;-65
2022/04/25 09:18:28;;;;;;;;;44.00;37.50;;;;;14.85;53.57;100246.34;4995671;28;45685;-65
2022/04/25 09:20:56;;;;;;;;;49.75;38.25;;;;;14.98;53.53;100254.34;4995163;28;45339;-64
2022/04/25 09:23:22;;;;;;;;;44.25;37.50;;;;;15.02;52.85;100255.84;4995293;28;45299;-65
2022/04/25 09:26:07;;;;;;;;;48.25;40.25;;;;;15.02;52.99;100262.00;4995375;28;45349;-64
2022/04/25 09:28:44;;;;;;;;;36.25;33.25;;;;;15.03;52.48;100254.91;4994843;28;45604;-63
2022/04/25 09:31:13;;;;;;;;;46.75;37.75;;;;;15.10;52.69;100252.72;4995756;28;46457;-64
2022/04/25 09:33:38;;;;;;;;;45.25;39.00;;;;;15.03;52.44;100261.06;4994006;28;45823;-63
2022/04/25 09:36:05;;;;;;;;;45.00;36.25;;;;;15.04;52.54;100261.88;4995157;28;45289;-63
2022/04/25 09:38:32;;;;;;;;;47.00;37.75;;;;;14.95;52.33;100262.47;4995299;28;45369;-65
2022/04/25 09:40:58;;;;;;;;;47.00;36.75;;;;;14.75;52.85;100260.13;4995335;28;46501;-67
2022/04/25 09:43:32;;;;;;;;;44.50;34.75;;;;;14.61;52.85;100263.63;4995304;28;45377;-65
2022/04/25 09:46:12;;;;;;;;;46.50;37.25;;;;;14.59;53.28;100254.94;4995058;28;45471;-65
2022/04/25 09:48:41;;;;;;;;;46.00;38.50;;;;;14.70;53.49;100258.75;4995970;28;45420;-63
2022/04/25 09:51:17;;;;;;;;;42.75;36.75;;;;;14.90;53.22;100268.91;4995111;28;45320;-65
2022/04/25 09:53:46;;;;;;;;;45.75;38.00;;;;;14.92;52.69;100270.63;4994991;28;45446;-64
2022/04/25 09:56:12;;;;;;;;;46.25;38.00;;;;;14.90;52.43;100262.78;4995002;28;45416;-63
2022/04/25 09:58:39;;;;;;;;;44.00;37.50;;;;;14.83;52.69;100264.09;4995522;28;45356;-64
2022/04/25 10:01:14;;;;;;;;;33.00;31.00;;;;;14.88;51.96;100270.81;4994850;28;47130;-65
2022/04/25 10:03:41;;;;;;;;;45.75;37.50;;;;;14.94;52.33;100277.53;4994987;28;45510;-65
2022/04/25 10:06:07;;;;;;;;;41.50;35.25;;;;;15.00;51.88;100274.50;4995455;28;45424;-64
2022/04/25 10:08:35;;;;;;;;;35.00;32.25;;;;;15.10;51.65;100272.09;4995014;28;45701;-64
2022/04/25 10:11:03;;;;;;;;;48.75;38.50;;;;;15.08;51.85;100273.16;4994538;28;47234;-65
2022/04/25 10:13:30;;;;;;;;;40.25;35.00;;;;;15.24;52.29;100267.69;4994471;28;45512;-65
2022/04/25 10:15:56;;;;;;;;;47.25;37.75;;;;;15.31;51.50;100276.94;4994592;28;45282;-63
2022/04/25 10:18:23;;;;;;;;;45.25;36.00;;;;;15.34;51.63;100277.63;4994965;28;45529;-63
2022/04/25 10:20:48;;;;;;;;;43.75;36.50;;;;;15.37;51.88;100283.66;4994405;28;47883;-65
2022/04/25 10:23:16;;;;;;;;;47.25;37.00;;;;;15.29;51.56;100285.00;4994411;28;45259;-63
2022/04/25 10:25:50;;;;;;;;;42.50;36.25;;;;;15.30;51.58;100276.13;4995020;28;45256;-63
2022/04/25 10:28:36;;;;;;;;;42.75;35.75;;;;;15.32;51.18;100284.81;4995074;28;45404;-63
2022/04/25 10:31:05;;;;;;;;;42.00;36.00;;;;;15.19;51.16;100276.78;4976178;28;48052;-64
2022/04/25 10:33:49;;;;;;;;;40.00;35.00;;;;;15.22;51.25;100283.72;4976705;28;45416;-64
2022/04/25 10:36:37;;;;;;;;;40.75;33.75;;;;;15.24;50.97;100286.25;4994342;28;45531;-63
2022/04/25 10:39:18;;;;;;;;;37.00;33.25;;;;;15.29;50.98;100286.78;4985374;28;45500;-63
2022/04/25 10:44:37;;;;;;;;;42.50;35.50;;;;;15.37;49.87;100288.97;4994234;28;45429;-65
2022/04/25 10:47:05;;;;;;;;;42.00;34.50;;;;;15.45;49.55;100289.31;4993160;28;45394;-66
2022/04/25 10:49:32;;;;;;;;;39.75;33.75;;;;;15.54;49.50;100287.88;4996266;28;45463;-64
2022/04/25 10:51:58;;;;;;;;;36.25;33.75;;;;;15.68;49.80;100284.28;4997548;28;45505;-64
2022/04/25 10:54:26;;;;;;;;;33.75;32.25;;;;;15.83;49.07;100288.56;4997300;28;45993;-64
2022/04/25 10:57:10;;;;;;;;;32.25;29.25;;;;;15.93;48.51;100280.03;4997577;28;45330;-65
2022/04/25 10:59:37;;;;;;;;;35.25;32.25;;;;;15.99;48.55;100283.13;4997994;28;45187;-65
2022/04/25 11:02:24;;;;;;;;;31.75;30.75;;;;;16.13;47.67;100282.19;4997583;28;46672;-65
2022/04/25 11:05:11;;;;;;;;;33.25;29.50;;;;;16.15;46.42;100285.59;4997642;28;45389;-64
2022/04/25 11:07:41;;;;;;;;;34.50;31.75;;;;;16.17;46.31;100288.13;4997647;28;45442;-66
2022/04/25 11:10:07;;;;;;;;;48.50;40.00;;;;;16.23;45.69;100282.38;4997722;28;45214;-65
2022/04/25 11:12:58;;;;;;;;;32.50;27.50;;;;;16.23;44.98;100282.38;4996876;28;46163;-67
2022/04/25 11:15:44;;;;;;;;;36.50;30.50;;;;;16.27;45.59;100280.38;4997088;28;45400;-67
2022/04/25 11:18:27;;;;;;;;;32.00;30.25;;;;;16.37;45.43;100281.44;4997399;28;45370;-65
2022/04/25 11:21:14;;;;;;;;;27.50;24.00;;;;;16.52;44.68;100282.19;4997308;28;45181;-67
2022/04/25 11:23:45;;;;;;;;;29.50;26.25;;;;;16.47;43.97;100285.16;4997048;28;46209;-65
2022/04/25 11:26:23;;;;;;;;;27.00;24.00;;;;;16.40;43.89;100285.69;4997458;28;45342;-66
2022/04/25 11:29:07;;;;;;;;;25.75;23.50;;;;;16.37;43.43;100289.41;4997388;28;45198;-66
2022/04/25 11:31:34;;;;;;;;;25.25;23.25;;;;;16.39;42.97;100278.66;4997332;28;45273;-67
2022/04/25 11:34:02;;;;;;;;;24.50;24.00;;;;;16.55;43.26;100292.59;4997062;28;46508;-68
2022/04/25 11:36:29;;;;;;;;;29.00;24.00;;;;;16.55;42.77;100276.66;4997033;28;45400;-66
2022/04/25 11:41:40;;;;;;;;;25.50;23.50;;;;;16.78;42.43;100277.66;4996986;28;45444;-66
2022/04/25 11:44:06;;;;;;;;;18.25;18.25;;;;;16.88;41.60;100282.31;4996616;28;45720;-66
2022/04/25 11:46:33;;;;;;;;;21.25;21.25;;;;;17.03;41.62;100283.06;4996785;28;45523;-66